createdAt,value
2022-07-28T00:00:40.786Z,12.80
2022-07-28T00:03:09.192Z,12.80
2022-07-28T00:05:39.000Z,12.80
2022-07-28T00:08:14.251Z,12.90
2022-07-28T00:10:42.823Z,12.80
2022-07-28T00:13:13.445Z,12.90
2022-07-28T00:15:41.845Z,13.00
2022-07-28T00:18:11.483Z,13.10
2022-07-28T00:20:41.645Z,12.90
2022-07-28T00:23:09.984Z,12.90
2022-07-28T00:25:38.740Z,12.70
2022-07-28T00:28:07.422Z,12.50
2022-07-28T00:30:37.629Z,12.40
2022-07-28T00:33:06.127Z,12.40
2022-07-28T00:35:34.505Z,12.50
2022-07-28T00:38:03.129Z,12.70
2022-07-28T00:40:45.835Z,12.70
2022-07-28T00:43:14.403Z,12.60
2022-07-28T00:45:44.712Z,12.80
2022-07-28T00:48:13.429Z,12.70
2022-07-28T00:50:44.134Z,12.70
2022-07-28T00:53:12.511Z,12.60
2022-07-28T00:56:05.789Z,12.60
2022-07-28T00:58:31.944Z,12.70
2022-07-28T01:01:01.645Z,12.70
2022-07-28T01:03:32.144Z,12.50
2022-07-28T01:06:07.175Z,12.60
2022-07-28T01:08:45.589Z,12.50
2022-07-28T01:11:22.758Z,12.50
2022-07-28T01:14:01.543Z,12.60
2022-07-28T01:16:32.163Z,12.50
2022-07-28T01:19:07.823Z,12.50
2022-07-28T01:21:37.501Z,12.30
2022-07-28T01:24:24.106Z,12.40
2022-07-28T01:27:05.927Z,12.50
2022-07-28T01:30:00.517Z,12.40
2022-07-28T01:32:34.194Z,12.30
2022-07-28T01:35:10.982Z,12.30
2022-07-28T01:37:46.658Z,12.40
2022-07-28T01:40:18.958Z,12.40
2022-07-28T01:42:50.822Z,12.40
2022-07-28T01:45:22.378Z,12.40
2022-07-28T01:47:55.453Z,12.30
2022-07-28T01:50:27.721Z,12.20
2022-07-28T01:52:58.162Z,12.30
2022-07-28T01:55:27.382Z,12.20
2022-07-28T01:57:58.278Z,12.20
2022-07-28T02:00:28.593Z,12.10
2022-07-28T02:03:01.683Z,12.10
2022-07-28T02:05:32.494Z,12.10
2022-07-28T02:08:02.423Z,12.00
2022-07-28T02:10:31.790Z,12.00
2022-07-28T02:13:01.675Z,11.90
2022-07-28T02:15:32.215Z,11.90
2022-07-28T02:18:03.473Z,11.90
2022-07-28T02:20:33.687Z,11.90
2022-07-28T02:23:02.321Z,11.90
2022-07-28T02:25:31.461Z,11.90
2022-07-28T02:28:04.735Z,11.80
2022-07-28T02:30:38.522Z,11.80
2022-07-28T02:33:16.038Z,11.80
2022-07-28T02:36:00.715Z,11.80
2022-07-28T02:38:32.214Z,11.80
2022-07-28T02:41:06.787Z,11.80
2022-07-28T02:43:49.566Z,11.80
2022-07-28T02:46:23.427Z,11.80
2022-07-28T02:48:57.733Z,11.80
2022-07-28T02:51:30.256Z,11.80
2022-07-28T02:53:59.433Z,11.90
2022-07-28T02:56:30.439Z,11.90
2022-07-28T02:58:59.760Z,11.90
2022-07-28T03:01:28.996Z,11.90
2022-07-28T03:04:00.586Z,11.90
2022-07-28T03:06:30.622Z,11.90
2022-07-28T03:08:58.992Z,11.80
2022-07-28T03:11:27.653Z,11.80
2022-07-28T03:13:56.315Z,11.80
2022-07-28T03:16:24.737Z,11.90
2022-07-28T03:18:54.437Z,12.00
2022-07-28T03:21:26.261Z,11.90
2022-07-28T03:23:55.906Z,11.90
2022-07-28T03:26:31.662Z,11.70
2022-07-28T03:29:01.342Z,11.80
2022-07-28T03:31:32.751Z,11.80
2022-07-28T03:34:01.087Z,11.90
2022-07-28T03:36:39.945Z,11.70
2022-07-28T03:39:12.052Z,11.60
2022-07-28T03:41:43.489Z,11.60
2022-07-28T03:44:13.510Z,11.70
2022-07-28T03:46:45.617Z,11.70
2022-07-28T03:49:14.446Z,11.60
2022-07-28T03:51:45.424Z,11.40
2022-07-28T03:54:14.632Z,11.30
2022-07-28T03:56:43.244Z,11.20
2022-07-28T03:59:12.324Z,11.30
2022-07-28T04:01:40.647Z,11.20
2022-07-28T04:04:09.423Z,11.20
2022-07-28T04:06:37.694Z,11.20
2022-07-28T04:09:07.372Z,11.20
2022-07-28T04:11:36.084Z,11.20
2022-07-28T04:14:04.839Z,11.20
2022-07-28T04:16:33.083Z,11.20
2022-07-28T04:19:01.920Z,11.20
2022-07-28T04:21:30.557Z,11.30
2022-07-28T04:24:01.988Z,11.30
2022-07-28T04:26:32.274Z,11.40
2022-07-28T04:29:03.247Z,11.40
2022-07-28T04:31:32.329Z,11.30
2022-07-28T04:34:01.149Z,11.40
2022-07-28T04:36:29.371Z,11.40
2022-07-28T04:38:59.569Z,11.30
2022-07-28T04:41:28.142Z,11.40
2022-07-28T04:43:59.344Z,11.40
2022-07-28T04:46:27.886Z,11.30
2022-07-28T04:48:56.227Z,11.30
2022-07-28T04:51:25.033Z,11.30
2022-07-28T04:53:53.732Z,11.30
2022-07-28T04:56:24.879Z,11.50
2022-07-28T04:58:53.636Z,11.70
2022-07-28T05:01:23.924Z,11.80
2022-07-28T05:03:53.385Z,11.70
2022-07-28T05:06:21.999Z,11.80
2022-07-28T05:08:50.939Z,11.90
2022-07-28T05:11:19.200Z,12.20
2022-07-28T05:13:47.508Z,12.40
2022-07-28T05:16:15.844Z,12.60
2022-07-28T05:18:45.480Z,12.80
2022-07-28T05:21:13.945Z,12.90
2022-07-28T05:23:47.476Z,12.90
2022-07-28T05:26:16.609Z,13.10
2022-07-28T05:28:47.749Z,13.30
2022-07-28T05:31:16.914Z,13.60
2022-07-28T05:33:48.296Z,13.80
2022-07-28T05:36:17.394Z,14.10
2022-07-28T05:38:45.880Z,14.20
2022-07-28T05:41:14.326Z,14.40
2022-07-28T05:43:42.571Z,14.60
2022-07-28T05:46:11.497Z,14.90
2022-07-28T05:48:40.445Z,15.00
2022-07-28T05:51:10.593Z,15.20
2022-07-28T05:53:39.038Z,15.50
2022-07-28T05:56:07.990Z,15.90
2022-07-28T05:58:40.558Z,15.80
2022-07-28T06:01:12.116Z,15.70
2022-07-28T06:03:42.486Z,15.50
2022-07-28T06:06:16.284Z,15.50
2022-07-28T06:08:47.390Z,15.60
2022-07-28T06:11:21.953Z,15.80
2022-07-28T06:13:54.620Z,16.10
2022-07-28T06:16:23.902Z,16.40
2022-07-28T06:18:53.341Z,16.50
2022-07-28T06:21:25.884Z,16.50
2022-07-28T06:23:54.942Z,16.20
2022-07-28T06:26:23.939Z,16.20
2022-07-28T06:28:53.501Z,16.30
2022-07-28T06:31:22.602Z,16.90
2022-07-28T06:33:51.391Z,17.10
2022-07-28T06:36:19.709Z,17.00
2022-07-28T06:38:49.619Z,17.00
2022-07-28T06:41:17.906Z,17.40
2022-07-28T06:43:46.231Z,17.40
2022-07-28T06:46:18.715Z,17.20
2022-07-28T06:48:48.260Z,18.00
2022-07-28T06:51:19.807Z,17.70
2022-07-28T06:53:49.661Z,17.30
2022-07-28T06:56:19.654Z,17.60
2022-07-28T06:58:49.984Z,17.80
2022-07-28T07:01:20.117Z,18.10
2022-07-28T07:03:50.201Z,18.50
2022-07-28T07:06:18.818Z,19.00
2022-07-28T07:08:48.433Z,18.30
2022-07-28T07:11:18.170Z,17.70
2022-07-28T07:13:48.056Z,18.30
2022-07-28T07:16:17.255Z,19.20
2022-07-28T07:18:48.463Z,18.60
2022-07-28T07:21:17.211Z,19.20
2022-07-28T07:23:50.791Z,18.90
2022-07-28T07:26:20.431Z,18.90
2022-07-28T07:28:50.139Z,18.80
2022-07-28T07:31:18.939Z,19.20
2022-07-28T07:33:49.514Z,19.20
2022-07-28T07:36:18.209Z,19.70
2022-07-28T07:38:46.666Z,20.40
2022-07-28T07:41:15.276Z,20.50
2022-07-28T07:43:48.968Z,21.00
2022-07-28T07:46:18.559Z,20.70
2022-07-28T07:48:47.553Z,21.30
2022-07-28T07:51:16.480Z,21.30
2022-07-28T07:53:46.366Z,21.30
2022-07-28T07:56:15.936Z,21.60
2022-07-28T07:58:44.756Z,21.50
2022-07-28T08:01:14.838Z,21.50
2022-07-28T08:03:44.703Z,21.80
2022-07-28T08:06:26.237Z,22.20
2022-07-28T08:08:55.371Z,22.40
2022-07-28T08:11:23.707Z,23.30
2022-07-28T08:13:52.105Z,24.00
2022-07-28T08:16:21.827Z,24.30
2022-07-28T08:18:50.227Z,23.70
2022-07-28T08:21:18.978Z,24.20
2022-07-28T08:23:48.513Z,23.40
2022-07-28T08:26:16.813Z,23.70
2022-07-28T08:28:45.221Z,24.60
2022-07-28T08:31:13.560Z,24.20
2022-07-28T08:33:53.696Z,24.00
2022-07-28T08:36:23.087Z,22.90
2022-07-28T08:38:51.880Z,22.80
2022-07-28T08:41:36.981Z,23.20
2022-07-28T08:44:06.527Z,23.50
2022-07-28T08:46:37.274Z,23.80
2022-07-28T08:49:10.329Z,23.60
2022-07-28T08:51:41.335Z,22.60
2022-07-28T08:54:11.459Z,22.70
2022-07-28T08:56:48.116Z,22.30
2022-07-28T08:59:16.814Z,22.50
2022-07-28T09:01:45.912Z,22.90
2022-07-28T09:04:20.570Z,23.00
2022-07-28T09:06:49.792Z,23.20
2022-07-28T09:09:21.840Z,23.20
2022-07-28T09:11:51.253Z,23.20
2022-07-28T09:14:19.721Z,23.50
2022-07-28T09:16:51.306Z,23.20
2022-07-28T09:19:21.223Z,23.80
2022-07-28T09:21:50.052Z,24.10
2022-07-28T09:24:34.514Z,23.90
2022-07-28T09:27:06.960Z,23.80
2022-07-28T09:29:38.408Z,23.70
2022-07-28T09:32:07.896Z,23.30
2022-07-28T09:34:44.628Z,23.30
2022-07-28T09:37:24.839Z,23.60
2022-07-28T09:39:59.379Z,23.70
2022-07-28T09:42:45.584Z,24.10
2022-07-28T09:45:23.796Z,23.60
2022-07-28T09:48:13.175Z,23.70
2022-07-28T09:50:43.555Z,24.00
2022-07-28T09:53:23.439Z,24.30
2022-07-28T09:55:57.175Z,24.50
2022-07-28T09:58:26.818Z,24.50
2022-07-28T10:01:07.813Z,24.60
2022-07-28T10:03:38.587Z,24.80
2022-07-28T10:06:14.717Z,24.00
2022-07-28T10:08:47.569Z,24.90
2022-07-28T10:11:17.082Z,25.90
2022-07-28T10:14:05.266Z,25.40
2022-07-28T10:16:34.945Z,24.90
2022-07-28T10:19:06.470Z,25.30
2022-07-28T10:21:45.523Z,25.60
2022-07-28T10:24:22.009Z,25.80
2022-07-28T10:26:52.555Z,25.80
2022-07-28T10:29:23.398Z,26.40
2022-07-28T10:31:54.541Z,25.80
2022-07-28T10:34:24.559Z,25.00
2022-07-28T10:36:57.086Z,25.90
2022-07-28T10:39:30.113Z,25.90
2022-07-28T10:41:59.682Z,25.70
2022-07-28T10:44:28.571Z,26.50
2022-07-28T10:46:58.398Z,26.30
2022-07-28T10:49:32.764Z,26.20
2022-07-28T10:52:19.883Z,26.60
2022-07-28T10:55:08.884Z,25.80
2022-07-28T10:57:43.127Z,24.10
2022-07-28T11:00:25.846Z,23.60
2022-07-28T11:03:00.869Z,23.90
2022-07-28T11:05:39.408Z,24.90
2022-07-28T11:08:11.372Z,25.70
2022-07-28T11:10:48.619Z,26.50
2022-07-28T11:13:28.781Z,26.60
2022-07-28T11:15:58.594Z,26.90
2022-07-28T11:18:29.647Z,27.30
2022-07-28T11:21:09.177Z,27.20
2022-07-28T11:23:48.213Z,26.20
2022-07-28T11:26:39.249Z,26.90
2022-07-28T11:29:22.471Z,26.70
2022-07-28T11:32:05.113Z,27.00
2022-07-28T11:35:19.856Z,27.00
2022-07-28T11:38:11.116Z,26.90
2022-07-28T11:40:43.451Z,26.80
2022-07-28T11:43:38.645Z,26.20
2022-07-28T11:46:25.015Z,26.10
2022-07-28T11:49:18.511Z,26.90
2022-07-28T11:52:21.665Z,27.00
2022-07-28T11:54:58.493Z,25.70
2022-07-28T11:57:30.687Z,26.70
2022-07-28T12:00:02.701Z,26.60
2022-07-28T12:02:36.221Z,27.00
2022-07-28T12:05:14.251Z,27.60
2022-07-28T12:07:49.476Z,28.00
2022-07-28T12:10:53.966Z,27.70
2022-07-28T12:13:29.064Z,28.00
2022-07-28T12:15:58.051Z,27.60
2022-07-28T12:18:26.458Z,27.60
2022-07-28T12:20:56.131Z,27.10
2022-07-28T12:23:38.773Z,26.80
2022-07-28T12:26:31.662Z,27.10
2022-07-28T12:29:02.220Z,27.00
2022-07-28T12:31:38.345Z,26.90
2022-07-28T12:34:09.736Z,27.10
2022-07-28T12:36:39.240Z,26.60
2022-07-28T12:39:12.964Z,26.80
2022-07-28T12:41:41.574Z,26.70
2022-07-28T12:44:12.572Z,25.90
2022-07-28T12:46:48.724Z,26.00
2022-07-28T12:49:23.834Z,25.70
2022-07-28T12:51:52.311Z,25.30
2022-07-28T12:54:36.014Z,25.30
2022-07-28T12:57:04.772Z,24.60
2022-07-28T12:59:36.346Z,24.10
2022-07-28T13:02:07.652Z,24.30
2022-07-28T13:04:44.877Z,24.30
2022-07-28T13:07:15.326Z,24.50
2022-07-28T13:09:51.894Z,24.60
2022-07-28T13:12:30.920Z,24.60
2022-07-28T13:15:03.185Z,24.60
2022-07-28T13:17:50.539Z,24.60
2022-07-28T13:20:19.241Z,24.40
2022-07-28T13:22:47.929Z,24.50
2022-07-28T13:25:16.332Z,24.60
2022-07-28T13:27:45.153Z,24.30
2022-07-28T13:30:15.474Z,24.20
2022-07-28T13:32:45.820Z,24.40
2022-07-28T13:35:14.830Z,24.40
2022-07-28T13:37:43.560Z,23.90
2022-07-28T13:40:13.706Z,23.60
2022-07-28T13:42:52.931Z,23.70
2022-07-28T13:45:29.952Z,24.00
2022-07-28T13:47:59.840Z,24.30
2022-07-28T13:50:28.370Z,24.20
2022-07-28T13:52:56.720Z,23.90
2022-07-28T13:55:27.105Z,23.90
2022-07-28T13:57:56.535Z,24.10
2022-07-28T14:00:26.886Z,24.20
2022-07-28T14:02:55.406Z,24.10
2022-07-28T14:05:24.687Z,24.00
2022-07-28T14:08:01.079Z,23.90
2022-07-28T14:10:29.690Z,24.00
2022-07-28T14:12:58.242Z,23.90
2022-07-28T14:15:28.421Z,24.00
2022-07-28T14:17:57.761Z,23.90
2022-07-28T14:20:26.980Z,23.90
2022-07-28T14:22:55.378Z,23.60
2022-07-28T14:25:24.939Z,23.50
2022-07-28T14:27:55.249Z,23.70
2022-07-28T14:30:25.883Z,23.80
2022-07-28T14:32:57.297Z,23.90
2022-07-28T14:35:27.122Z,23.50
2022-07-28T14:38:41.959Z,23.70
2022-07-28T14:40:44.735Z,23.80
2022-07-28T14:43:13.967Z,23.90
2022-07-28T14:46:00.695Z,23.90
2022-07-28T14:48:35.762Z,24.10
2022-07-28T14:51:06.238Z,24.20
2022-07-28T14:53:35.663Z,24.00
2022-07-28T14:56:14.603Z,23.80
2022-07-28T14:58:43.500Z,23.60
2022-07-28T15:01:11.792Z,23.60
2022-07-28T15:03:43.186Z,23.50
2022-07-28T15:06:11.829Z,23.30
2022-07-28T15:08:40.959Z,23.20
2022-07-28T15:11:09.679Z,23.40
2022-07-28T15:13:39.003Z,23.50
2022-07-28T15:16:08.028Z,23.50
2022-07-28T15:18:36.699Z,23.50
2022-07-28T15:21:08.339Z,23.60
2022-07-28T15:23:36.705Z,23.50
2022-07-28T15:26:05.392Z,23.20
2022-07-28T15:28:34.595Z,23.30
2022-07-28T15:31:03.496Z,23.20
2022-07-28T15:33:38.943Z,23.30
2022-07-28T15:36:19.086Z,23.30
2022-07-28T15:38:50.833Z,23.40
2022-07-28T15:41:20.187Z,23.40
2022-07-28T15:43:48.960Z,23.50
2022-07-28T15:46:18.367Z,23.50
2022-07-28T15:48:48.258Z,23.40
2022-07-28T15:51:19.407Z,23.50
2022-07-28T15:53:56.415Z,23.30
2022-07-28T15:56:26.269Z,23.40
2022-07-28T15:58:54.907Z,23.50
2022-07-28T16:01:23.607Z,23.30
2022-07-28T16:03:53.552Z,23.30
2022-07-28T16:06:25.304Z,23.40
2022-07-28T16:08:54.805Z,23.30
2022-07-28T16:11:23.451Z,23.40
2022-07-28T16:13:52.450Z,23.40
2022-07-28T16:16:21.289Z,23.50
2022-07-28T16:18:50.829Z,23.40
2022-07-28T16:21:19.273Z,23.20
2022-07-28T16:23:49.237Z,23.20
2022-07-28T16:26:18.465Z,23.30
2022-07-28T16:28:47.202Z,23.30
2022-07-28T16:31:16.773Z,23.30
2022-07-28T16:33:46.812Z,23.30
2022-07-28T16:36:15.330Z,23.30
2022-07-28T16:38:44.194Z,23.30
2022-07-28T16:41:16.107Z,23.30
2022-07-28T16:43:46.311Z,23.30
2022-07-28T16:46:20.038Z,23.30
2022-07-28T16:48:48.571Z,23.20
2022-07-28T16:51:18.385Z,23.30
2022-07-28T16:53:49.689Z,23.30
2022-07-28T16:56:23.016Z,23.20
2022-07-28T16:58:52.623Z,23.30
2022-07-28T17:01:20.959Z,23.30
2022-07-28T17:03:49.716Z,23.30
2022-07-28T17:06:18.080Z,23.20
2022-07-28T17:08:47.302Z,23.20
2022-07-28T17:11:17.311Z,23.20
2022-07-28T17:13:47.329Z,23.20
2022-07-28T17:16:18.060Z,23.20
2022-07-28T17:18:47.387Z,23.20
2022-07-28T17:21:16.078Z,23.20
2022-07-28T17:23:45.492Z,23.20
2022-07-28T17:27:31.689Z,23.20
2022-07-28T17:29:06.564Z,23.10
2022-07-28T17:31:35.426Z,23.20
2022-07-28T17:34:04.903Z,23.10
2022-07-28T17:36:35.293Z,23.10
2022-07-28T17:39:04.595Z,23.00
2022-07-28T17:41:33.209Z,22.80
2022-07-28T17:44:04.127Z,22.80
2022-07-28T17:46:32.449Z,22.60
2022-07-28T17:49:04.347Z,22.50
2022-07-28T17:51:33.597Z,22.40
2022-07-28T17:54:02.975Z,22.30
2022-07-28T17:56:32.685Z,22.30
2022-07-28T17:59:04.445Z,22.20
2022-07-28T18:01:33.204Z,22.20
2022-07-28T18:04:01.962Z,22.10
2022-07-28T18:06:35.253Z,22.10
2022-07-28T18:09:06.571Z,22.10
2022-07-28T18:11:55.279Z,22.00
2022-07-28T18:14:28.128Z,22.00
2022-07-28T18:16:57.117Z,21.90
2022-07-28T18:19:26.312Z,21.90
2022-07-28T18:21:56.220Z,21.90
2022-07-28T18:24:25.072Z,21.90
2022-07-28T18:26:53.569Z,21.90
2022-07-28T18:29:22.334Z,21.80
2022-07-28T18:31:52.774Z,21.80
2022-07-28T18:34:24.263Z,21.80
2022-07-28T18:36:53.811Z,21.70
2022-07-28T18:39:22.857Z,21.60
2022-07-28T18:41:52.062Z,21.50
2022-07-28T18:44:22.237Z,21.40
2022-07-28T18:46:52.976Z,21.30
2022-07-28T18:49:21.716Z,21.30
2022-07-28T18:51:50.571Z,21.30
2022-07-28T18:54:27.603Z,21.10
2022-07-28T18:56:56.787Z,21.10
2022-07-28T18:59:25.270Z,21.00
2022-07-28T19:01:55.043Z,20.90
2022-07-28T19:04:23.493Z,20.90
2022-07-28T19:06:51.922Z,20.90
2022-07-28T19:09:20.752Z,20.80
2022-07-28T19:11:49.368Z,20.70
2022-07-28T19:14:19.000Z,20.70
2022-07-28T19:16:47.760Z,20.60
2022-07-28T19:19:19.606Z,20.60
2022-07-28T19:21:49.584Z,20.50
2022-07-28T19:24:18.941Z,20.50
2022-07-28T19:26:50.255Z,20.50
2022-07-28T19:29:18.843Z,20.50
2022-07-28T19:31:48.285Z,20.40
2022-07-28T19:34:18.964Z,20.40
2022-07-28T19:36:49.267Z,20.40
2022-07-28T19:39:18.121Z,20.30
2022-07-28T19:41:46.981Z,20.30
2022-07-28T19:44:16.243Z,20.30
2022-07-28T19:46:45.440Z,20.40
2022-07-28T19:49:17.035Z,20.30
2022-07-28T19:51:50.314Z,20.30
2022-07-28T19:54:21.037Z,20.30
2022-07-28T19:56:49.610Z,20.20
2022-07-28T19:59:18.404Z,20.20
2022-07-28T20:01:50.494Z,20.20
2022-07-28T20:04:19.795Z,20.20
2022-07-28T20:06:55.142Z,20.10
2022-07-28T20:09:23.915Z,20.10
2022-07-28T20:11:52.409Z,20.00
2022-07-28T20:14:22.127Z,20.00
2022-07-28T20:16:50.507Z,20.10
2022-07-28T20:19:18.871Z,20.00
2022-07-28T20:21:47.267Z,20.10
2022-07-28T20:24:19.794Z,20.10
2022-07-28T20:26:48.371Z,20.10
2022-07-28T20:29:17.425Z,20.10
2022-07-28T20:31:45.725Z,20.10
2022-07-28T20:34:15.784Z,20.10
2022-07-28T20:36:44.344Z,20.00
2022-07-28T20:39:42.544Z,20.00
2022-07-28T20:42:07.914Z,20.00
2022-07-28T20:44:36.785Z,20.00
2022-07-28T20:47:05.922Z,19.90
2022-07-28T20:49:35.182Z,19.90
2022-07-28T20:52:05.695Z,19.80
2022-07-28T20:54:35.394Z,19.90
2022-07-28T20:57:03.874Z,19.80
2022-07-28T20:59:32.705Z,19.80
2022-07-28T21:02:01.012Z,19.70
2022-07-28T21:04:29.876Z,19.70
2022-07-28T21:07:02.113Z,19.70
2022-07-28T21:09:35.598Z,19.70
2022-07-28T21:12:05.803Z,19.70
2022-07-28T21:14:34.150Z,19.60
2022-07-28T21:17:02.671Z,19.60
2022-07-28T21:19:31.114Z,19.50
2022-07-28T21:21:59.863Z,19.50
2022-07-28T21:24:28.256Z,19.40
2022-07-28T21:26:58.519Z,19.40
2022-07-28T21:29:26.805Z,19.40
2022-07-28T21:32:03.924Z,19.20
2022-07-28T21:34:36.134Z,19.20
2022-07-28T21:37:05.351Z,19.10
2022-07-28T21:39:35.850Z,19.00
2022-07-28T21:42:08.330Z,19.00
2022-07-28T21:44:39.142Z,18.90
2022-07-28T21:47:07.722Z,19.00
2022-07-28T21:49:37.023Z,19.00
2022-07-28T21:52:06.783Z,19.00
2022-07-28T21:54:35.056Z,19.00
2022-07-28T21:57:15.119Z,19.00
2022-07-28T21:59:54.481Z,19.00
2022-07-28T22:02:24.169Z,18.90
2022-07-28T22:04:55.821Z,18.90
2022-07-28T22:07:27.887Z,18.90
2022-07-28T22:09:57.092Z,18.80
2022-07-28T22:12:27.592Z,18.80
2022-07-28T22:14:56.011Z,18.80
2022-07-28T22:17:24.596Z,18.80
2022-07-28T22:19:52.962Z,18.80
2022-07-28T22:22:22.108Z,18.80
2022-07-28T22:24:50.850Z,18.80
2022-07-28T22:27:19.235Z,18.80
2022-07-28T22:29:51.745Z,18.80
2022-07-28T22:32:28.664Z,18.80
2022-07-28T22:34:59.045Z,18.80
2022-07-28T22:37:29.596Z,18.90
2022-07-28T22:39:58.418Z,18.80
2022-07-28T22:42:26.719Z,18.80
2022-07-28T22:44:56.923Z,18.80
2022-07-28T22:47:25.610Z,18.70
2022-07-28T22:49:57.093Z,18.80
2022-07-28T22:52:27.893Z,18.80
2022-07-28T22:54:58.043Z,18.70
2022-07-28T22:57:26.647Z,18.70
2022-07-28T22:59:57.058Z,18.70
2022-07-28T23:02:29.568Z,18.70
2022-07-28T23:04:58.465Z,18.50
2022-07-28T23:07:53.501Z,18.60
2022-07-28T23:10:15.820Z,18.60
2022-07-28T23:12:44.477Z,18.60
2022-07-28T23:15:15.621Z,18.60
2022-07-28T23:17:45.503Z,18.50
2022-07-28T23:20:14.151Z,18.60
2022-07-28T23:22:42.374Z,18.60
2022-07-28T23:25:11.658Z,18.50
2022-07-28T23:27:43.412Z,18.50
2022-07-28T23:30:15.725Z,18.50
2022-07-28T23:32:43.946Z,18.50
2022-07-28T23:35:12.449Z,18.40
2022-07-28T23:37:40.826Z,18.40
2022-07-28T23:40:13.300Z,18.50
2022-07-28T23:42:41.556Z,18.50
2022-07-28T23:45:11.670Z,18.40
2022-07-28T23:47:41.539Z,18.50
2022-07-28T23:50:11.071Z,18.40
2022-07-28T23:52:39.530Z,18.40
2022-07-28T23:55:09.646Z,18.40
2022-07-28T23:57:38.210Z,18.30
